Time;durP1;ratioP1;P1;durP2;ratioP2;P2;SDS_P1;SDS_P2;PMS_P1;PMS_P2;Temp;Humidity;BMP_temperature;BMP_pressure;BME280_temperature;BME280_humidity;BME280_pressure;Samples;Min_cycle;Max_cycle;Signal;HPM_P1;HPM_P2
2023/10/03 00:01:40;;;;;;;34.75;12.60;;;;;;;;;;4981083;28;20077;-71
2023/10/03 00:04:10;;;;;;;34.72;12.05;;;;;;;;;;4980934;28;20109;-70
2023/10/03 00:06:39;;;;;;;33.22;11.68;;;;;;;;;;4980248;28;20078;-68
2023/10/03 00:09:06;;;;;;;32.38;12.75;;;;;;;;;;4980267;28;20060;-72
2023/10/03 00:11:33;;;;;;;36.10;12.60;;;;;;;;;;4981109;28;20050;-72
2023/10/03 00:14:00;;;;;;;38.10;13.18;;;;;;;;;;4981051;28;20078;-72
2023/10/03 00:16:26;;;;;;;33.33;12.55;;;;;;;;;;4962228;28;20042;-71
2023/10/03 00:18:51;;;;;;;36.53;12.23;;;;;;;;;;4980734;28;20062;-71
2023/10/03 00:21:18;;;;;;;40.03;13.40;;;;;;;;;;4980219;28;20046;-72
2023/10/03 00:23:43;;;;;;;38.25;13.25;;;;;;;;;;4980616;28;20046;-71
2023/10/03 00:26:13;;;;;;;36.13;12.27;;;;;;;;;;4980415;28;20050;-72
2023/10/03 00:28:41;;;;;;;34.65;12.93;;;;;;;;;;4980083;28;20428;-71
2023/10/03 00:31:10;;;;;;;38.60;13.48;;;;;;;;;;4979769;28;21789;-72
2023/10/03 00:33:36;;;;;;;33.25;12.20;;;;;;;;;;4979171;28;20104;-71
2023/10/03 00:36:03;;;;;;;39.88;12.55;;;;;;;;;;4980030;28;20050;-72
2023/10/03 00:38:29;;;;;;;36.70;11.93;;;;;;;;;;4979873;28;20475;-72
2023/10/03 00:40:55;;;;;;;30.20;11.13;;;;;;;;;;4978930;28;20982;-71
2023/10/03 00:43:21;;;;;;;32.80;12.57;;;;;;;;;;4979786;28;20046;-71
2023/10/03 00:45:48;;;;;;;31.30;11.65;;;;;;;;;;4978478;28;20050;-72
2023/10/03 00:48:15;;;;;;;31.35;11.32;;;;;;;;;;4979177;28;20043;-72
2023/10/03 00:50:45;;;;;;;29.95;10.90;;;;;;;;;;4978127;28;20076;-71
2023/10/03 00:53:12;;;;;;;28.38;10.93;;;;;;;;;;4977766;28;20050;-71
2023/10/03 00:55:40;;;;;;;32.65;10.70;;;;;;;;;;4980077;28;20047;-71
2023/10/03 00:58:17;;;;;;;30.02;10.90;;;;;;;;;;4979254;28;20061;-72
2023/10/03 01:00:45;;;;;;;28.85;11.50;;;;;;;;;;4979283;28;20046;-71
2023/10/03 01:03:31;;;;;;;30.42;10.38;;;;;;;;;;4975789;28;20153;-71
2023/10/03 01:06:10;;;;;;;26.83;9.25;;;;;;;;;;4976200;28;20043;-71
2023/10/03 01:08:45;;;;;;;31.20;9.63;;;;;;;;;;4977424;28;20050;-71
2023/10/03 01:11:15;;;;;;;25.77;8.70;;;;;;;;;;4977617;28;20049;-73
2023/10/03 01:13:48;;;;;;;26.83;9.07;;;;;;;;;;4978700;28;20050;-73
2023/10/03 01:16:32;;;;;;;25.73;9.07;;;;;;;;;;4978015;28;20050;-71
2023/10/03 01:19:13;;;;;;;23.10;8.77;;;;;;;;;;4962181;28;20459;-71
2023/10/03 01:21:41;;;;;;;23.30;8.55;;;;;;;;;;4987659;28;20169;-71
2023/10/03 01:24:09;;;;;;;27.98;9.20;;;;;;;;;;4974756;28;20154;-72
2023/10/03 01:26:34;;;;;;;20.85;9.35;;;;;;;;;;4953370;28;20508;-71
2023/10/03 01:29:00;;;;;;;23.92;7.80;;;;;;;;;;4958959;28;20057;-70
2023/10/03 01:31:27;;;;;;;21.95;8.70;;;;;;;;;;4958098;28;20074;-71
2023/10/03 01:33:52;;;;;;;23.80;9.80;;;;;;;;;;4960393;28;20110;-71
2023/10/03 01:36:18;;;;;;;27.77;10.20;;;;;;;;;;4957834;28;20623;-71
2023/10/03 01:38:45;;;;;;;20.05;8.32;;;;;;;;;;4974704;28;20100;-72
2023/10/03 01:41:12;;;;;;;23.38;8.15;;;;;;;;;;4959737;28;20074;-71
2023/10/03 01:43:43;;;;;;;19.88;7.72;;;;;;;;;;4958719;28;20585;-71
2023/10/03 01:46:17;;;;;;;25.52;9.07;;;;;;;;;;4958997;28;20054;-71
2023/10/03 01:48:43;;;;;;;24.45;8.40;;;;;;;;;;4960508;28;20047;-71
2023/10/03 01:51:09;;;;;;;22.65;8.75;;;;;;;;;;4957842;28;20051;-72
2023/10/03 01:53:35;;;;;;;19.52;7.85;;;;;;;;;;4958886;28;20054;-73
2023/10/03 01:56:03;;;;;;;18.30;7.32;;;;;;;;;;4959633;28;20066;-71
2023/10/03 01:58:30;;;;;;;20.58;7.72;;;;;;;;;;4973806;28;20484;-72
2023/10/03 02:00:55;;;;;;;19.63;7.20;;;;;;;;;;4959673;28;20043;-72
2023/10/03 02:03:22;;;;;;;19.65;8.15;;;;;;;;;;4959472;28;20042;-71
2023/10/03 02:05:48;;;;;;;21.98;7.50;;;;;;;;;;4958338;28;20074;-72
2023/10/03 02:08:16;;;;;;;18.05;7.15;;;;;;;;;;4957617;28;20042;-72
2023/10/03 02:10:44;;;;;;;22.02;7.32;;;;;;;;;;4942494;28;20129;-71
2023/10/03 02:13:17;;;;;;;19.30;6.75;;;;;;;;;;4957528;28;20508;-72
2023/10/03 02:15:44;;;;;;;20.05;6.57;;;;;;;;;;4958651;28;20535;-71
2023/10/03 02:18:14;;;;;;;19.90;6.40;;;;;;;;;;4961127;28;20050;-72
2023/10/03 02:20:50;;;;;;;21.58;7.35;;;;;;;;;;4961669;28;20186;-72
2023/10/03 02:23:23;;;;;;;21.85;7.35;;;;;;;;;;4961495;28;20197;-72
2023/10/03 02:25:52;;;;;;;19.30;6.95;;;;;;;;;;4963706;28;20050;-72
2023/10/03 02:28:18;;;;;;;22.70;7.00;;;;;;;;;;4962053;28;20101;-73
2023/10/03 02:30:52;;;;;;;20.60;8.00;;;;;;;;;;4961950;28;20474;-72
2023/10/03 02:33:21;;;;;;;18.15;6.78;;;;;;;;;;4963158;28;20504;-72
2023/10/03 02:35:47;;;;;;;19.73;8.07;;;;;;;;;;4965583;28;20050;-72
2023/10/03 02:38:24;;;;;;;22.25;7.70;;;;;;;;;;4978672;28;20050;-72
2023/10/03 02:40:53;;;;;;;17.73;7.03;;;;;;;;;;4997580;28;20046;-72
2023/10/03 02:43:20;;;;;;;17.13;7.22;;;;;;;;;;4996387;28;20046;-72
2023/10/03 02:45:46;;;;;;;19.48;7.10;;;;;;;;;;4981531;28;20077;-73
2023/10/03 02:48:15;;;;;;;16.67;6.65;;;;;;;;;;4997467;28;20081;-73
2023/10/03 02:50:43;;;;;;;19.52;7.13;;;;;;;;;;4996912;28;20046;-72
2023/10/03 02:53:12;;;;;;;17.27;6.18;;;;;;;;;;4987101;28;20141;-72
2023/10/03 02:55:38;;;;;;;17.48;6.97;;;;;;;;;;4982589;28;20068;-72
2023/10/03 02:58:05;;;;;;;20.30;7.10;;;;;;;;;;4986840;28;20478;-72
2023/10/03 03:00:33;;;;;;;24.48;7.88;;;;;;;;;;4997136;28;20054;-72
2023/10/03 03:02:58;;;;;;;18.35;7.43;;;;;;;;;;4997349;28;20050;-73
2023/10/03 03:05:35;;;;;;;19.10;7.28;;;;;;;;;;4996136;28;20085;-72
2023/10/03 03:08:10;;;;;;;15.68;6.45;;;;;;;;;;4980496;28;20042;-72
2023/10/03 03:10:38;;;;;;;21.05;7.10;;;;;;;;;;4981118;28;20604;-72
2023/10/03 03:13:07;;;;;;;18.13;7.00;;;;;;;;;;4980203;28;20074;-72
2023/10/03 03:15:36;;;;;;;20.85;6.90;;;;;;;;;;4979728;28;20050;-72
2023/10/03 03:18:02;;;;;;;18.73;6.88;;;;;;;;;;4978155;28;20050;-72
2023/10/03 03:20:36;;;;;;;17.65;6.90;;;;;;;;;;4982318;28;20392;-73
2023/10/03 03:23:02;;;;;;;22.33;7.70;;;;;;;;;;4982261;28;20101;-72
2023/10/03 03:25:38;;;;;;;19.67;7.47;;;;;;;;;;4980771;28;20082;-72
2023/10/03 03:28:15;;;;;;;16.60;6.68;;;;;;;;;;4981135;28;20050;-71
2023/10/03 03:30:55;;;;;;;18.35;6.70;;;;;;;;;;4981363;28;20112;-72
2023/10/03 03:33:22;;;;;;;19.02;7.05;;;;;;;;;;4980421;28;20421;-72
2023/10/03 03:35:47;;;;;;;19.13;6.43;;;;;;;;;;4980958;28;20595;-73
2023/10/03 03:38:18;;;;;;;18.88;7.13;;;;;;;;;;4980650;28;20197;-72
2023/10/03 03:40:49;;;;;;;19.38;6.78;;;;;;;;;;4981868;28;20054;-74
2023/10/03 03:43:16;;;;;;;21.80;6.70;;;;;;;;;;4980984;28;20121;-72
2023/10/03 03:45:45;;;;;;;20.73;6.40;;;;;;;;;;4981240;28;20053;-72
2023/10/03 03:48:13;;;;;;;17.48;6.97;;;;;;;;;;4980143;28;20162;-71
2023/10/03 03:50:39;;;;;;;20.10;7.25;;;;;;;;;;4981204;28;20064;-73
2023/10/03 03:53:06;;;;;;;15.13;6.53;;;;;;;;;;4979328;28;20116;-73
2023/10/03 03:55:34;;;;;;;17.52;6.65;;;;;;;;;;4980775;28;20054;-73
2023/10/03 03:58:02;;;;;;;18.38;6.45;;;;;;;;;;4980525;28;20056;-72
2023/10/03 04:00:29;;;;;;;17.73;6.13;;;;;;;;;;4980143;28;20046;-73
2023/10/03 04:03:11;;;;;;;17.00;6.57;;;;;;;;;;4981097;28;20050;-71
2023/10/03 04:05:37;;;;;;;21.13;7.32;;;;;;;;;;4981411;28;20058;-71
2023/10/03 04:08:04;;;;;;;18.80;7.25;;;;;;;;;;4980443;28;20176;-71
2023/10/03 04:10:30;;;;;;;20.63;6.63;;;;;;;;;;4980251;28;20096;-72
2023/10/03 04:12:56;;;;;;;20.60;6.88;;;;;;;;;;4979825;28;20050;-72
2023/10/03 04:15:23;;;;;;;18.90;7.13;;;;;;;;;;4979275;28;20045;-73
2023/10/03 04:17:49;;;;;;;20.75;7.13;;;;;;;;;;4980177;28;20065;-72
2023/10/03 04:22:53;;;;;;;17.52;7.45;;;;;;;;;;4980955;28;20434;-72
2023/10/03 04:25:22;;;;;;;20.83;6.72;;;;;;;;;;4980092;28;20050;-73
2023/10/03 04:27:48;;;;;;;18.77;6.88;;;;;;;;;;4979356;28;20050;-72
2023/10/03 04:30:15;;;;;;;17.80;7.75;;;;;;;;;;4978846;28;20049;-71
2023/10/03 04:32:42;;;;;;;17.73;6.80;;;;;;;;;;4980105;28;20054;-72
2023/10/03 04:35:13;;;;;;;20.73;7.72;;;;;;;;;;4979845;28;20476;-72
2023/10/03 04:37:41;;;;;;;20.98;7.43;;;;;;;;;;4980120;28;20518;-73
2023/10/03 04:40:11;;;;;;;20.42;7.35;;;;;;;;;;4979298;28;20145;-72
2023/10/03 04:42:38;;;;;;;19.40;6.75;;;;;;;;;;4978505;28;20042;-72
2023/10/03 04:45:07;;;;;;;16.52;7.18;;;;;;;;;;4978324;28;20050;-72
2023/10/03 04:47:33;;;;;;;19.17;7.13;;;;;;;;;;4979853;28;20061;-71
2023/10/03 04:50:02;;;;;;;21.33;7.80;;;;;;;;;;4979653;28;20050;-71
2023/10/03 04:52:27;;;;;;;25.02;6.70;;;;;;;;;;4980461;28;20068;-72
2023/10/03 04:54:53;;;;;;;24.75;7.50;;;;;;;;;;4979661;28;20422;-70
2023/10/03 04:57:18;;;;;;;24.85;7.35;;;;;;;;;;4979476;28;20139;-71
2023/10/03 04:59:43;;;;;;;21.92;7.53;;;;;;;;;;4980088;28;20109;-71
2023/10/03 05:02:11;;;;;;;22.90;7.63;;;;;;;;;;4979592;28;20584;-70
2023/10/03 05:04:36;;;;;;;18.15;7.30;;;;;;;;;;4979212;28;20064;-70
2023/10/03 05:07:02;;;;;;;19.50;7.25;;;;;;;;;;4979509;28;20050;-71
2023/10/03 05:09:30;;;;;;;23.10;8.18;;;;;;;;;;4979575;28;20052;-72
2023/10/03 05:11:56;;;;;;;26.33;8.07;;;;;;;;;;4978472;28;20125;-72
2023/10/03 05:14:21;;;;;;;25.55;8.30;;;;;;;;;;4978913;28;21517;-71
2023/10/03 05:16:50;;;;;;;20.25;7.45;;;;;;;;;;4977376;28;20100;-73
2023/10/03 05:19:21;;;;;;;20.02;7.35;;;;;;;;;;4976079;28;20046;-72
2023/10/03 05:21:47;;;;;;;21.75;7.70;;;;;;;;;;4979333;28;20057;-73
2023/10/03 05:24:14;;;;;;;23.35;7.85;;;;;;;;;;4994117;28;20054;-73
2023/10/03 05:26:41;;;;;;;18.65;7.63;;;;;;;;;;4977393;28;20133;-72
2023/10/03 05:29:07;;;;;;;20.80;6.95;;;;;;;;;;4978876;28;20133;-72
2023/10/03 05:31:34;;;;;;;20.02;7.50;;;;;;;;;;4978463;28;20058;-73
2023/10/03 05:34:00;;;;;;;19.65;6.53;;;;;;;;;;4979913;28;20682;-72
2023/10/03 05:36:25;;;;;;;24.15;7.65;;;;;;;;;;4978920;28;20081;-73
2023/10/03 05:38:51;;;;;;;20.70;7.57;;;;;;;;;;4979103;28;20120;-72
2023/10/03 05:41:23;;;;;;;19.58;6.78;;;;;;;;;;4978501;28;20073;-73
2023/10/03 05:43:50;;;;;;;20.27;6.88;;;;;;;;;;4979542;28;20069;-72
2023/10/03 05:46:15;;;;;;;18.75;6.78;;;;;;;;;;4978864;28;20133;-72
2023/10/03 05:48:42;;;;;;;19.30;7.10;;;;;;;;;;4977765;28;20495;-72
2023/10/03 05:51:08;;;;;;;20.20;6.60;;;;;;;;;;4978022;28;20104;-72
2023/10/03 05:53:34;;;;;;;19.48;6.68;;;;;;;;;;4979444;28;20058;-73
2023/10/03 05:56:00;;;;;;;16.50;6.55;;;;;;;;;;4977779;28;20054;-72
2023/10/03 05:58:27;;;;;;;17.77;6.90;;;;;;;;;;4960676;28;20076;-73
2023/10/03 06:00:52;;;;;;;21.00;6.60;;;;;;;;;;4992339;28;20065;-72
2023/10/03 06:03:18;;;;;;;23.70;7.18;;;;;;;;;;4992094;28;20847;-73
2023/10/03 06:05:45;;;;;;;15.60;6.35;;;;;;;;;;4977450;28;20054;-72
2023/10/03 06:08:12;;;;;;;14.85;6.20;;;;;;;;;;4977717;28;20054;-72
2023/10/03 06:10:41;;;;;;;21.85;6.28;;;;;;;;;;4977580;28;20708;-72
2023/10/03 06:13:07;;;;;;;18.73;6.63;;;;;;;;;;4976031;28;20096;-75
2023/10/03 06:15:36;;;;;;;19.00;6.65;;;;;;;;;;4978067;28;21085;-74
2023/10/03 06:18:04;;;;;;;23.80;6.70;;;;;;;;;;4976827;28;20146;-72
2023/10/03 06:20:30;;;;;;;18.85;6.65;;;;;;;;;;4976707;28;20074;-71
2023/10/03 06:22:56;;;;;;;14.63;5.72;;;;;;;;;;4976915;28;20145;-72
2023/10/03 06:25:21;;;;;;;14.77;5.78;;;;;;;;;;4977912;28;20048;-71
2023/10/03 06:27:47;;;;;;;15.52;6.18;;;;;;;;;;4978722;28;20060;-71
2023/10/03 06:30:14;;;;;;;16.20;6.13;;;;;;;;;;4978017;28;20042;-71
2023/10/03 06:32:39;;;;;;;16.67;6.63;;;;;;;;;;4958361;28;20511;-72
2023/10/03 06:35:06;;;;;;;17.35;5.82;;;;;;;;;;4976047;28;20046;-71
2023/10/03 06:37:35;;;;;;;18.27;6.95;;;;;;;;;;4975654;28;20046;-72
2023/10/03 06:40:01;;;;;;;17.95;6.78;;;;;;;;;;4973609;28;20660;-72
2023/10/03 06:42:27;;;;;;;20.63;6.25;;;;;;;;;;4959050;28;20448;-71
2023/10/03 06:44:52;;;;;;;17.23;6.47;;;;;;;;;;4975758;28;20146;-73
2023/10/03 06:47:20;;;;;;;14.30;6.18;;;;;;;;;;4975664;28;20066;-72
2023/10/03 06:49:45;;;;;;;17.02;6.13;;;;;;;;;;4976202;28;20434;-74
2023/10/03 06:52:11;;;;;;;15.40;5.95;;;;;;;;;;4975577;28;20058;-74
2023/10/03 06:54:36;;;;;;;17.30;6.22;;;;;;;;;;4990009;28;20062;-73
2023/10/03 06:57:03;;;;;;;19.13;6.43;;;;;;;;;;4990276;28;20057;-74
2023/10/03 06:59:29;;;;;;;14.77;6.03;;;;;;;;;;4964378;28;20057;-74
2023/10/03 07:01:54;;;;;;;14.75;6.32;;;;;;;;;;4974286;28;20047;-74
2023/10/03 07:04:20;;;;;;;15.15;5.95;;;;;;;;;;4974092;28;20197;-74
2023/10/03 07:06:45;;;;;;;13.85;5.95;;;;;;;;;;4975837;28;20038;-74
2023/10/03 07:09:11;;;;;;;14.93;6.55;;;;;;;;;;4979150;28;20030;-74
2023/10/03 07:11:36;;;;;;;19.85;6.68;;;;;;;;;;4979303;28;20046;-74
2023/10/03 07:14:02;;;;;;;15.57;5.78;;;;;;;;;;4960718;28;20046;-74
2023/10/03 07:16:36;;;;;;;18.33;6.90;;;;;;;;;;4975392;28;20115;-74
2023/10/03 07:19:01;;;;;;;15.55;6.70;;;;;;;;;;4965160;28;20093;-73
2023/10/03 07:21:27;;;;;;;15.10;5.90;;;;;;;;;;4975367;28;20050;-73
2023/10/03 07:23:53;;;;;;;16.20;5.85;;;;;;;;;;4978401;28;20121;-73
2023/10/03 07:26:18;;;;;;;17.63;6.03;;;;;;;;;;4977703;28;20161;-72
2023/10/03 07:28:44;;;;;;;14.40;5.90;;;;;;;;;;4976771;28;20129;-72
2023/10/03 07:31:13;;;;;;;11.65;4.97;;;;;;;;;;4974595;28;20056;-74
2023/10/03 07:33:44;;;;;;;14.55;6.07;;;;;;;;;;4977948;28;20519;-72
2023/10/03 07:36:10;;;;;;;14.93;5.85;;;;;;;;;;4975353;28;20145;-73
2023/10/03 07:38:35;;;;;;;16.30;6.78;;;;;;;;;;4993060;28;20129;-71
2023/10/03 07:41:08;;;;;;;14.82;5.68;;;;;;;;;;4993709;28;20050;-73
2023/10/03 07:43:33;;;;;;;13.68;6.10;;;;;;;;;;4978691;28;20043;-72
2023/10/03 07:45:59;;;;;;;13.45;6.03;;;;;;;;;;4977949;28;20057;-72
2023/10/03 07:48:24;;;;;;;16.50;6.45;;;;;;;;;;4978374;28;20065;-72
2023/10/03 07:50:50;;;;;;;18.27;5.68;;;;;;;;;;4977487;28;20069;-72
2023/10/03 07:53:17;;;;;;;14.40;5.90;;;;;;;;;;4978293;28;20052;-72
2023/10/03 07:55:42;;;;;;;15.85;5.85;;;;;;;;;;4979198;28;20418;-71
2023/10/03 07:58:08;;;;;;;19.45;6.55;;;;;;;;;;4979565;28;20046;-71
2023/10/03 08:00:34;;;;;;;13.90;7.03;;;;;;;;;;4978172;28;20938;-72
2023/10/03 08:03:04;;;;;;;18.00;6.90;;;;;;;;;;4979524;28;20046;-72
2023/10/03 08:05:29;;;;;;;17.60;6.38;;;;;;;;;;4993644;28;20114;-71
2023/10/03 08:07:56;;;;;;;14.73;6.10;;;;;;;;;;4980184;28;20504;-72
2023/10/03 08:10:22;;;;;;;13.65;6.35;;;;;;;;;;4977858;28;20047;-71
2023/10/03 08:12:52;;;;;;;14.38;6.22;;;;;;;;;;4977623;28;20042;-72
2023/10/03 08:15:20;;;;;;;14.63;5.85;;;;;;;;;;4993332;28;20077;-72
2023/10/03 08:17:48;;;;;;;12.50;6.20;;;;;;;;;;4957096;28;20039;-71
2023/10/03 08:20:18;;;;;;;18.83;6.30;;;;;;;;;;4966548;28;20109;-69
2023/10/03 08:22:50;;;;;;;14.10;5.57;;;;;;;;;;4986451;28;20065;-70
2023/10/03 08:25:25;;;;;;;12.38;5.88;;;;;;;;;;4977624;28;20034;-70
2023/10/03 08:27:51;;;;;;;15.45;5.82;;;;;;;;;;4977983;28;20688;-69
2023/10/03 08:30:41;;;;;;;15.15;6.00;;;;;;;;;;4978079;28;20046;-71
2023/10/03 08:33:05;;;;;;;15.23;6.00;;;;;;;;;;4976855;28;20140;-72
2023/10/03 08:35:40;;;;;;;12.43;5.57;;;;;;;;;;4976276;28;20054;-72
2023/10/03 08:38:07;;;;;;;14.50;5.90;;;;;;;;;;4978185;28;20101;-72
2023/10/03 08:40:49;;;;;;;14.00;5.70;;;;;;;;;;4978011;28;20045;-71
2023/10/03 08:43:25;;;;;;;10.90;5.57;;;;;;;;;;4978328;28;20130;-72
2023/10/03 08:45:56;;;;;;;12.05;5.70;;;;;;;;;;4977287;28;20384;-72
2023/10/03 08:48:27;;;;;;;12.70;6.00;;;;;;;;;;4979282;28;20412;-73
2023/10/03 08:50:58;;;;;;;14.05;5.97;;;;;;;;;;4979245;28;20495;-72
2023/10/03 08:53:27;;;;;;;;;;;;;;;;;;4977373;28;20123;-72
2023/10/03 08:56:01;;;;;;;10.98;5.30;;;;;;;;;;4976913;28;19936;-72
2023/10/03 08:58:27;;;;;;;12.63;5.47;;;;;;;;;;4979481;28;20133;-72
2023/10/03 09:01:02;;;;;;;13.88;5.63;;;;;;;;;;4979586;28;20112;-72
2023/10/03 09:03:47;;;;;;;16.17;5.88;;;;;;;;;;4978497;28;20125;-72
2023/10/03 09:06:19;;;;;;;10.82;5.38;;;;;;;;;;4978562;28;20050;-72
2023/10/03 09:08:51;;;;;;;10.68;5.57;;;;;;;;;;4979821;28;21234;-72
2023/10/03 09:11:18;;;;;;;15.52;5.95;;;;;;;;;;4978999;28;20337;-72
2023/10/03 09:13:47;;;;;;;16.17;6.47;;;;;;;;;;4995522;28;20050;-72
2023/10/03 09:16:15;;;;;;;12.02;6.10;;;;;;;;;;4980104;28;20775;-72
2023/10/03 09:18:41;;;;;;;13.18;5.70;;;;;;;;;;4978467;28;20048;-72
2023/10/03 09:21:08;;;;;;;13.02;5.80;;;;;;;;;;4978466;28;20057;-72
2023/10/03 09:23:42;;;;;;;10.32;5.45;;;;;;;;;;4978928;28;20557;-72
2023/10/03 09:26:08;;;;;;;12.40;5.43;;;;;;;;;;4960825;28;20061;-72
2023/10/03 09:28:37;;;;;;;13.07;6.13;;;;;;;;;;4978033;28;20051;-72
2023/10/03 09:31:08;;;;;;;13.60;5.97;;;;;;;;;;4979883;28;20042;-71
2023/10/03 09:33:38;;;;;;;13.45;6.30;;;;;;;;;;4978656;28;20046;-72
2023/10/03 09:36:04;;;;;;;12.97;6.20;;;;;;;;;;4977235;28;20112;-72
2023/10/03 09:38:42;;;;;;;11.70;5.65;;;;;;;;;;4978979;28;20046;-72
2023/10/03 09:41:16;;;;;;;10.68;5.40;;;;;;;;;;4977872;28;20049;-71
2023/10/03 09:43:47;;;;;;;10.13;4.50;;;;;;;;;;4979072;28;20053;-72
2023/10/03 09:46:14;;;;;;;7.63;3.92;;;;;;;;;;4977249;28;20142;-72
2023/10/03 09:48:39;;;;;;;9.30;4.07;;;;;;;;;;4961659;28;20557;-72
2023/10/03 09:51:08;;;;;;;9.40;4.18;;;;;;;;;;4978373;28;20058;-72
2023/10/03 09:53:34;;;;;;;8.85;4.00;;;;;;;;;;4977249;28;20745;-72
2023/10/03 09:56:00;;;;;;;6.65;4.25;;;;;;;;;;4993286;28;20058;-72
2023/10/03 09:58:31;;;;;;;7.38;3.83;;;;;;;;;;4979020;28;20590;-72
2023/10/03 10:00:57;;;;;;;8.07;4.03;;;;;;;;;;4978787;28;20050;-72
2023/10/03 10:03:38;;;;;;;8.30;4.28;;;;;;;;;;4978000;28;20049;-72
2023/10/03 10:06:37;;;;;;;10.05;3.95;;;;;;;;;;4978549;28;20046;-72
2023/10/03 10:09:13;;;;;;;6.97;3.70;;;;;;;;;;4980498;28;20053;-72
2023/10/03 10:12:19;;;;;;;7.53;3.92;;;;;;;;;;4975133;28;20054;-72
2023/10/03 10:15:00;;;;;;;5.63;3.50;;;;;;;;;;4977759;28;20046;-72
2023/10/03 10:17:57;;;;;;;9.05;4.10;;;;;;;;;;4977322;28;20077;-72
2023/10/03 10:20:38;;;;;;;7.88;3.60;;;;;;;;;;4978891;28;20546;-73
2023/10/03 10:23:23;;;;;;;9.32;3.63;;;;;;;;;;4977838;28;20046;-72
2023/10/03 10:25:51;;;;;;;6.07;3.63;;;;;;;;;;4991533;28;21168;-72
2023/10/03 10:28:23;;;;;;;9.68;3.95;;;;;;;;;;4978324;28;20061;-72
2023/10/03 10:31:15;;;;;;;7.13;3.50;;;;;;;;;;4979070;28;20757;-72
2023/10/03 10:33:42;;;;;;;6.38;3.63;;;;;;;;;;4985626;28;20054;-72
2023/10/03 10:36:10;;;;;;;8.13;3.45;;;;;;;;;;4978031;28;20471;-73
2023/10/03 10:38:35;;;;;;;6.03;3.38;;;;;;;;;;4979294;28;20104;-73
2023/10/03 10:44:13;;;;;;;7.13;3.60;;;;;;;;;;5004454;28;20058;-72
2023/10/03 10:46:49;;;;;;;8.75;3.67;;;;;;;;;;4980483;28;20050;-71
2023/10/03 10:49:40;;;;;;;7.18;3.25;;;;;;;;;;4980851;28;20054;-72
2023/10/03 10:52:12;;;;;;;5.37;3.43;;;;;;;;;;4982255;28;20566;-72
2023/10/03 10:54:41;;;;;;;8.40;3.67;;;;;;;;;;4981753;28;20057;-72
2023/10/03 10:57:14;;;;;;;8.55;3.95;;;;;;;;;;4980618;28;20050;-75
2023/10/03 10:59:40;;;;;;;7.32;3.50;;;;;;;;;;4980946;28;20119;-72
2023/10/03 11:02:33;;;;;;;6.60;3.63;;;;;;;;;;4982066;28;20094;-72
2023/10/03 11:04:59;;;;;;;8.90;3.80;;;;;;;;;;4983093;28;20150;-72
2023/10/03 11:07:29;;;;;;;7.07;3.42;;;;;;;;;;4980656;28;20046;-71
2023/10/03 11:10:04;;;;;;;6.30;3.80;;;;;;;;;;4981911;28;20159;-72
2023/10/03 11:12:29;;;;;;;5.32;3.50;;;;;;;;;;4982959;28;20113;-72
2023/10/03 11:14:56;;;;;;;5.82;3.25;;;;;;;;;;4986812;28;20050;-72
2023/10/03 11:17:25;;;;;;;5.68;3.22;;;;;;;;;;4982158;28;20056;-74
2023/10/03 11:19:54;;;;;;;7.20;3.70;;;;;;;;;;4981378;28;20049;-72
2023/10/03 11:22:21;;;;;;;6.10;3.03;;;;;;;;;;4980692;28;20078;-72
2023/10/03 11:24:46;;;;;;;7.55;3.42;;;;;;;;;;4982976;28;20415;-75
2023/10/03 11:27:30;;;;;;;4.97;3.10;;;;;;;;;;4981529;28;20484;-77
2023/10/03 11:29:57;;;;;;;6.47;3.10;;;;;;;;;;4982422;28;20355;-76
2023/10/03 11:32:29;;;;;;;6.70;2.60;;;;;;;;;;4981655;28;20046;-74
2023/10/03 11:34:57;;;;;;;4.25;3.00;;;;;;;;;;4980312;28;20046;-74
2023/10/03 11:37:44;;;;;;;7.82;3.25;;;;;;;;;;4979368;28;20410;-76
2023/10/03 11:40:13;;;;;;;8.15;3.25;;;;;;;;;;4981791;28;20807;-74
2023/10/03 11:42:45;;;;;;;8.35;2.92;;;;;;;;;;4980942;28;20050;-75
2023/10/03 11:45:21;;;;;;;7.00;3.03;;;;;;;;;;4980575;28;20042;-75
2023/10/03 11:48:01;;;;;;;3.45;2.25;;;;;;;;;;4978635;28;20435;-74
2023/10/03 11:50:28;;;;;;;5.68;2.92;;;;;;;;;;4979212;28;20096;-75
2023/10/03 11:52:56;;;;;;;5.60;3.00;;;;;;;;;;4978083;28;20046;-75
2023/10/03 11:55:26;;;;;;;6.15;2.83;;;;;;;;;;4977445;28;20447;-75
2023/10/03 11:57:52;;;;;;;5.38;2.95;;;;;;;;;;4978772;28;20039;-75
2023/10/03 12:00:17;;;;;;;7.55;2.65;;;;;;;;;;4977719;28;20053;-75
2023/10/03 12:02:48;;;;;;;4.82;2.58;;;;;;;;;;4978155;28;20161;-77
2023/10/03 12:05:14;;;;;;;5.43;2.78;;;;;;;;;;4978574;28;20514;-75
2023/10/03 12:07:45;;;;;;;5.85;2.97;;;;;;;;;;4977867;28;20559;-75
2023/10/03 12:10:14;;;;;;;6.75;3.00;;;;;;;;;;4981120;28;20049;-76
2023/10/03 12:12:40;;;;;;;3.83;2.63;;;;;;;;;;4980857;28;20059;-75
2023/10/03 12:15:12;;;;;;;4.22;2.78;;;;;;;;;;4979975;28;20512;-77
2023/10/03 12:17:43;;;;;;;6.55;3.40;;;;;;;;;;4980424;28;20062;-76
2023/10/03 12:20:14;;;;;;;7.70;3.00;;;;;;;;;;4981248;28;20042;-76
2023/10/03 12:22:44;;;;;;;5.60;2.95;;;;;;;;;;4978362;28;21055;-79
2023/10/03 12:25:14;;;;;;;5.33;2.30;;;;;;;;;;4978296;28;20137;-78
2023/10/03 12:27:41;;;;;;;6.13;2.92;;;;;;;;;;4979590;28;20281;-78
2023/10/03 12:30:11;;;;;;;5.40;2.78;;;;;;;;;;4979569;28;20057;-77
2023/10/03 12:32:41;;;;;;;6.78;2.50;;;;;;;;;;4980236;28;20510;-76
2023/10/03 12:35:07;;;;;;;6.00;2.90;;;;;;;;;;4980278;28;20431;-75
2023/10/03 12:37:34;;;;;;;8.93;3.22;;;;;;;;;;4973540;28;20058;-75
2023/10/03 12:40:04;;;;;;;5.20;2.45;;;;;;;;;;4979210;28;20054;-72
2023/10/03 12:42:31;;;;;;;4.43;2.85;;;;;;;;;;4979833;28;20059;-75
2023/10/03 12:44:57;;;;;;;5.38;2.80;;;;;;;;;;4979932;28;20053;-73
2023/10/03 12:47:23;;;;;;;8.82;2.58;;;;;;;;;;4977675;28;20046;-72
2023/10/03 12:49:48;;;;;;;3.95;2.28;;;;;;;;;;4978929;28;20050;-74
2023/10/03 12:52:14;;;;;;;6.75;2.95;;;;;;;;;;4978927;28;20046;-75
2023/10/03 12:54:40;;;;;;;4.53;2.47;;;;;;;;;;4979625;28;20061;-73
2023/10/03 12:57:06;;;;;;;3.78;2.45;;;;;;;;;;4979036;28;20133;-72
2023/10/03 12:59:32;;;;;;;4.97;3.28;;;;;;;;;;4978495;28;20232;-72
2023/10/03 13:01:57;;;;;;;6.50;2.72;;;;;;;;;;4978768;28;20522;-76
2023/10/03 13:04:23;;;;;;;6.03;2.78;;;;;;;;;;4978553;28;20042;-74
2023/10/03 13:06:50;;;;;;;6.78;2.67;;;;;;;;;;4979264;28;21021;-71
2023/10/03 13:09:17;;;;;;;6.82;2.72;;;;;;;;;;4978650;28;20045;-72
2023/10/03 13:11:42;;;;;;;6.15;2.65;;;;;;;;;;4978086;28;20046;-70
2023/10/03 13:14:09;;;;;;;7.10;2.72;;;;;;;;;;4979675;28;20439;-70
2023/10/03 13:16:35;;;;;;;7.18;2.50;;;;;;;;;;4979024;28;20156;-72
2023/10/03 13:19:01;;;;;;;5.72;2.30;;;;;;;;;;4979294;28;20165;-70
2023/10/03 13:21:27;;;;;;;3.55;2.35;;;;;;;;;;4977808;28;20050;-71
2023/10/03 13:23:53;;;;;;;6.65;2.78;;;;;;;;;;4979935;28;20054;-69
2023/10/03 13:26:19;;;;;;;6.47;2.83;;;;;;;;;;4979144;28;20076;-70
2023/10/03 13:28:44;;;;;;;5.15;2.38;;;;;;;;;;4979455;28;20042;-70
2023/10/03 13:31:10;;;;;;;6.38;2.50;;;;;;;;;;4977966;28;20411;-68
2023/10/03 13:33:36;;;;;;;5.47;2.97;;;;;;;;;;4979346;28;20046;-71
2023/10/03 13:36:02;;;;;;;6.93;2.28;;;;;;;;;;4978940;28;20065;-69
2023/10/03 13:38:30;;;;;;;4.90;2.50;;;;;;;;;;4979030;28;20042;-69
2023/10/03 13:40:56;;;;;;;4.40;2.58;;;;;;;;;;4979018;28;20034;-68
2023/10/03 13:43:27;;;;;;;6.10;2.50;;;;;;;;;;4977702;28;20042;-70
2023/10/03 13:45:55;;;;;;;6.32;2.17;;;;;;;;;;4982867;28;20515;-68
2023/10/03 13:48:21;;;;;;;3.88;2.38;;;;;;;;;;4977133;28;20056;-71
2023/10/03 13:50:47;;;;;;;4.45;2.45;;;;;;;;;;4978632;28;20049;-71
2023/10/03 13:53:15;;;;;;;5.03;2.45;;;;;;;;;;4976867;28;20749;-72
2023/10/03 13:55:40;;;;;;;5.05;2.30;;;;;;;;;;4978921;28;20054;-73
2023/10/03 13:58:06;;;;;;;3.70;2.15;;;;;;;;;;4977443;28;20613;-72
2023/10/03 14:00:35;;;;;;;3.60;2.20;;;;;;;;;;4978504;28;20049;-72
2023/10/03 14:03:09;;;;;;;6.15;2.20;;;;;;;;;;4976253;28;20129;-71
2023/10/03 14:05:35;;;;;;;5.03;2.65;;;;;;;;;;4962957;28;20054;-71
2023/10/03 14:08:03;;;;;;;6.45;2.60;;;;;;;;;;4978040;28;20054;-71
2023/10/03 14:10:32;;;;;;;3.80;2.20;;;;;;;;;;4977557;28;20042;-70
2023/10/03 14:12:58;;;;;;;4.50;2.65;;;;;;;;;;4980124;28;20561;-70
2023/10/03 14:15:24;;;;;;;3.85;2.25;;;;;;;;;;4980245;28;20074;-70
2023/10/03 14:17:50;;;;;;;7.97;2.22;;;;;;;;;;4996777;28;20636;-67
2023/10/03 14:20:21;;;;;;;5.43;2.28;;;;;;;;;;4982276;28;20042;-73
2023/10/03 14:22:46;;;;;;;;;;;;;;;;;;4983106;28;20550;-70
2023/10/03 14:25:12;;;;;;;3.60;2.15;;;;;;;;;;4981612;28;19933;-73
2023/10/03 14:27:42;;;;;;;4.32;2.63;;;;;;;;;;4981943;28;20050;-70
2023/10/03 14:30:08;;;;;;;5.25;2.45;;;;;;;;;;4982348;28;20057;-70
2023/10/03 14:32:36;;;;;;;4.03;2.45;;;;;;;;;;4982175;28;20042;-71
2023/10/03 14:35:02;;;;;;;3.90;2.15;;;;;;;;;;4981119;28;20871;-71
2023/10/03 14:37:27;;;;;;;4.68;2.30;;;;;;;;;;4980692;28;20053;-69
2023/10/03 14:39:54;;;;;;;5.60;2.40;;;;;;;;;;4981034;28;20068;-71
2023/10/03 14:42:21;;;;;;;3.92;2.53;;;;;;;;;;4981343;28;20132;-71
2023/10/03 14:44:46;;;;;;;4.25;2.13;;;;;;;;;;4964583;28;20041;-71
2023/10/03 14:47:11;;;;;;;3.60;2.28;;;;;;;;;;4980290;28;20042;-72
2023/10/03 14:49:37;;;;;;;4.10;2.40;;;;;;;;;;4981507;28;20229;-71